DEARI EDXW-EDDG
Flight info
| Callsign | DEARI |
|---|---|
| Flight time | 1h 15m |
| Altitude | 17000 |
| Route | OLDIP1B OLDIP DCT BADOS DCT OMWEG Y348 MAWEQ Z718 OSN |
| Aircraft | BT36/L-BDFGLORY/S |
Departure
| Time | 2026-04-22 11:37 |
|---|---|
| Airport | Westerland Sylt Airport (EDXW) |
Arrival
| Time | 2026-04-22 12:53 |
|---|---|
| Airport | Münster Osnabrück Airport (EDDG) |
| Time | Latitude | Longitude | Altitude | Speed | Heading |
|---|---|---|---|---|---|
| 2026-04-22 11:14 | 54.91365 | 8.32450 | 19 ft | 0 kts | 262° |
| 2026-04-22 11:32 | 54.91351 | 8.32434 | 19 ft | 6 kts | 165° |
| 2026-04-22 11:32 | 54.91299 | 8.32497 | 19 ft | 12 kts | 153° |
| 2026-04-22 11:32 | 54.91213 | 8.32576 | 19 ft | 15 kts | 149° |
| 2026-04-22 11:32 | 54.91115 | 8.32680 | 19 ft | 15 kts | 147° |
| 2026-04-22 11:33 | 54.91074 | 8.32814 | 22 ft | 14 kts | 109° |
| 2026-04-22 11:33 | 54.91020 | 8.32984 | 21 ft | 19 kts | 130° |
| 2026-04-22 11:33 | 54.90915 | 8.33141 | 22 ft | 21 kts | 151° |
| 2026-04-22 11:33 | 54.90777 | 8.33219 | 27 ft | 20 kts | 174° |
| 2026-04-22 11:34 | 54.90632 | 8.33235 | 27 ft | 22 kts | 175° |
| 2026-04-22 11:34 | 54.90479 | 8.33282 | 26 ft | 23 kts | 158° |
| 2026-04-22 11:34 | 54.90347 | 8.33440 | 24 ft | 23 kts | 132° |
| 2026-04-22 11:34 | 54.90268 | 8.33683 | 23 ft | 24 kts | 106° |
| 2026-04-22 11:35 | 54.90242 | 8.33954 | 23 ft | 21 kts | 98° |
| 2026-04-22 11:35 | 54.90242 | 8.34205 | 24 ft | 21 kts | 81° |
| 2026-04-22 11:35 | 54.90290 | 8.34416 | 26 ft | 17 kts | 57° |
| 2026-04-22 11:35 | 54.90363 | 8.34567 | 30 ft | 17 kts | 41° |
| 2026-04-22 11:36 | 54.90452 | 8.34709 | 30 ft | 19 kts | 42° |
| 2026-04-22 11:36 | 54.90553 | 8.34870 | 32 ft | 19 kts | 41° |
| 2026-04-22 11:36 | 54.90617 | 8.34923 | 32 ft | 5 kts | 324° |
| 2026-04-22 11:36 | 54.90620 | 8.34920 | 31 ft | 0 kts | 324° |
| 2026-04-22 11:37 | 54.90726 | 8.34788 | 30 ft | 60 kts | 324° |
| 2026-04-22 11:37 | 54.91198 | 8.34210 | 312 ft | 91 kts | 325° |
| 2026-04-22 11:37 | 54.91739 | 8.33584 | 834 ft | 98 kts | 325° |
| 2026-04-22 11:37 | 54.92322 | 8.32835 | 1349 ft | 108 kts | 324° |
| 2026-04-22 11:38 | 54.92925 | 8.32070 | 1861 ft | 110 kts | 324° |
| 2026-04-22 11:38 | 54.93562 | 8.31280 | 2389 ft | 116 kts | 324° |
| 2026-04-22 11:38 | 54.94866 | 8.29654 | 3467 ft | 111 kts | 326° |
| 2026-04-22 11:39 | 54.95487 | 8.28881 | 4011 ft | 109 kts | 326° |
| 2026-04-22 11:39 | 54.96097 | 8.28122 | 4556 ft | 107 kts | 327° |
| 2026-04-22 11:39 | 54.96696 | 8.27376 | 5116 ft | 105 kts | 328° |
| 2026-04-22 11:39 | 54.97299 | 8.26626 | 5617 ft | 108 kts | 329° |
| 2026-04-22 11:40 | 54.97918 | 8.25857 | 6116 ft | 110 kts | 329° |
| 2026-04-22 11:40 | 54.98538 | 8.25062 | 6631 ft | 112 kts | 323° |
| 2026-04-22 11:40 | 54.98846 | 8.23771 | 7127 ft | 124 kts | 279° |
| 2026-04-22 11:40 | 54.98541 | 8.22322 | 7617 ft | 135 kts | 238° |
| 2026-04-22 11:41 | 54.97985 | 8.21001 | 8115 ft | 135 kts | 240° |
| 2026-04-22 11:41 | 54.97437 | 8.19666 | 8613 ft | 136 kts | 239° |
| 2026-04-22 11:41 | 54.96885 | 8.18334 | 9125 ft | 136 kts | 239° |
| 2026-04-22 11:41 | 54.96333 | 8.16996 | 9642 ft | 136 kts | 238° |
| 2026-04-22 11:42 | 54.95778 | 8.15656 | 10171 ft | 137 kts | 239° |
| 2026-04-22 11:42 | 54.95229 | 8.14328 | 10652 ft | 137 kts | 239° |
| 2026-04-22 11:42 | 54.94664 | 8.12986 | 11132 ft | 139 kts | 234° |
| 2026-04-22 11:42 | 54.93829 | 8.12115 | 11586 ft | 146 kts | 194° |
| 2026-04-22 11:43 | 54.92825 | 8.12192 | 12040 ft | 146 kts | 156° |
| 2026-04-22 11:43 | 54.91990 | 8.13157 | 12507 ft | 145 kts | 134° |
| 2026-04-22 11:43 | 54.91199 | 8.14274 | 12975 ft | 148 kts | 135° |
| 2026-04-22 11:43 | 54.90398 | 8.15412 | 13451 ft | 150 kts | 135° |
| 2026-04-22 11:44 | 54.89585 | 8.16570 | 13931 ft | 152 kts | 135° |
| 2026-04-22 11:44 | 54.88759 | 8.17744 | 14406 ft | 154 kts | 134° |
| 2026-04-22 11:44 | 54.87925 | 8.18931 | 14840 ft | 156 kts | 134° |
| 2026-04-22 11:44 | 54.87081 | 8.20131 | 15280 ft | 158 kts | 133° |
| 2026-04-22 11:45 | 54.86227 | 8.21342 | 15727 ft | 159 kts | 133° |
| 2026-04-22 11:45 | 54.85367 | 8.22562 | 16178 ft | 160 kts | 133° |
| 2026-04-22 11:45 | 54.84500 | 8.23793 | 16637 ft | 162 kts | 132° |
| 2026-04-22 11:45 | 54.83626 | 8.25031 | 17113 ft | 163 kts | 132° |
| 2026-04-22 11:46 | 54.82734 | 8.26301 | 17421 ft | 175 kts | 131° |
| 2026-04-22 11:46 | 54.81656 | 8.27569 | 17431 ft | 197 kts | 142° |
| 2026-04-22 11:46 | 54.80456 | 8.28858 | 17429 ft | 208 kts | 142° |
| 2026-04-22 11:46 | 54.79206 | 8.30222 | 17429 ft | 215 kts | 141° |
| 2026-04-22 11:47 | 54.77930 | 8.31618 | 17427 ft | 219 kts | 142° |
| 2026-04-22 11:47 | 54.76630 | 8.33039 | 17434 ft | 221 kts | 142° |
| 2026-04-22 11:47 | 54.75323 | 8.34464 | 17439 ft | 223 kts | 142° |
| 2026-04-22 11:47 | 54.74002 | 8.35904 | 17419 ft | 225 kts | 142° |
| 2026-04-22 11:48 | 54.72677 | 8.37349 | 17410 ft | 225 kts | 142° |
| 2026-04-22 11:48 | 54.71367 | 8.38774 | 17409 ft | 225 kts | 142° |
| 2026-04-22 11:48 | 54.70042 | 8.40215 | 17410 ft | 224 kts | 142° |
| 2026-04-22 11:48 | 54.68814 | 8.41813 | 17404 ft | 217 kts | 126° |
| 2026-04-22 11:49 | 54.67991 | 8.43913 | 17400 ft | 207 kts | 107° |
| 2026-04-22 11:49 | 54.67458 | 8.46205 | 17398 ft | 205 kts | 103° |
| 2026-04-22 11:49 | 54.66925 | 8.48462 | 17399 ft | 205 kts | 104° |
| 2026-04-22 11:49 | 54.66384 | 8.50744 | 17399 ft | 205 kts | 104° |
| 2026-04-22 11:50 | 54.65848 | 8.53024 | 17397 ft | 205 kts | 104° |
| 2026-04-22 11:50 | 54.65310 | 8.55308 | 17397 ft | 205 kts | 104° |
| 2026-04-22 11:50 | 54.64772 | 8.57586 | 17397 ft | 205 kts | 104° |
| 2026-04-22 11:50 | 54.64233 | 8.59870 | 17397 ft | 205 kts | 104° |
| 2026-04-22 11:51 | 54.63695 | 8.62149 | 17398 ft | 205 kts | 104° |
| 2026-04-22 11:51 | 54.63155 | 8.64430 | 17407 ft | 205 kts | 104° |
| 2026-04-22 11:51 | 54.62615 | 8.66713 | 17395 ft | 206 kts | 104° |
| 2026-04-22 11:51 | 54.62069 | 8.68994 | 17395 ft | 206 kts | 107° |
| 2026-04-22 11:52 | 54.61101 | 8.70900 | 17387 ft | 222 kts | 142° |
| 2026-04-22 11:52 | 54.59661 | 8.71932 | 17391 ft | 226 kts | 158° |
| 2026-04-22 11:52 | 54.58160 | 8.72755 | 17393 ft | 226 kts | 157° |
| 2026-04-22 11:52 | 54.56688 | 8.73695 | 17394 ft | 225 kts | 154° |
| 2026-04-22 11:53 | 54.55725 | 8.74365 | 17396 ft | 225 kts | 153° |
| 2026-04-22 11:53 | 54.54271 | 8.75376 | 17397 ft | 225 kts | 154° |
| 2026-04-22 11:53 | 54.52811 | 8.76371 | 17400 ft | 226 kts | 154° |
| 2026-04-22 11:53 | 54.51349 | 8.77359 | 17400 ft | 226 kts | 154° |
| 2026-04-22 11:54 | 54.49889 | 8.78349 | 17399 ft | 226 kts | 154° |
| 2026-04-22 11:54 | 54.47954 | 8.79663 | 17399 ft | 226 kts | 154° |
| 2026-04-22 11:54 | 54.46967 | 8.80331 | 17399 ft | 226 kts | 154° |
| 2026-04-22 11:54 | 54.45506 | 8.81322 | 17392 ft | 226 kts | 154° |
| 2026-04-22 11:55 | 54.44046 | 8.82309 | 17392 ft | 226 kts | 154° |
| 2026-04-22 11:55 | 54.42584 | 8.83298 | 17393 ft | 226 kts | 154° |
| 2026-04-22 11:55 | 54.41124 | 8.84285 | 17393 ft | 225 kts | 154° |
| 2026-04-22 11:55 | 54.39665 | 8.85269 | 17390 ft | 226 kts | 154° |
| 2026-04-22 11:56 | 54.38203 | 8.86255 | 17391 ft | 226 kts | 154° |
| 2026-04-22 11:56 | 54.36744 | 8.87238 | 17391 ft | 226 kts | 154° |
| 2026-04-22 11:56 | 54.35283 | 8.88224 | 17390 ft | 226 kts | 154° |
| 2026-04-22 11:56 | 54.33822 | 8.89206 | 17390 ft | 225 kts | 154° |
| 2026-04-22 11:57 | 54.32362 | 8.90188 | 17391 ft | 226 kts | 154° |
| 2026-04-22 11:57 | 54.30902 | 8.91170 | 17387 ft | 226 kts | 154° |
| 2026-04-22 11:57 | 54.29441 | 8.92151 | 17387 ft | 225 kts | 154° |
| 2026-04-22 11:57 | 54.27980 | 8.93131 | 17387 ft | 225 kts | 154° |
| 2026-04-22 11:58 | 54.26519 | 8.94111 | 17388 ft | 225 kts | 154° |
| 2026-04-22 11:58 | 54.25059 | 8.95089 | 17380 ft | 226 kts | 154° |
| 2026-04-22 11:58 | 54.23596 | 8.96066 | 17380 ft | 226 kts | 154° |
| 2026-04-22 11:58 | 54.22134 | 8.97045 | 17380 ft | 226 kts | 154° |
| 2026-04-22 11:59 | 54.20672 | 8.98023 | 17382 ft | 226 kts | 154° |
| 2026-04-22 11:59 | 54.19210 | 8.98999 | 17383 ft | 226 kts | 154° |
| 2026-04-22 11:59 | 54.17765 | 8.99964 | 17383 ft | 226 kts | 154° |
| 2026-04-22 11:59 | 54.16301 | 9.00940 | 17383 ft | 226 kts | 154° |
| 2026-04-22 12:00 | 54.14838 | 9.01914 | 17385 ft | 226 kts | 154° |
| 2026-04-22 12:00 | 54.13373 | 9.02890 | 17385 ft | 226 kts | 154° |
| 2026-04-22 12:00 | 54.11914 | 9.03861 | 17384 ft | 225 kts | 154° |
| 2026-04-22 12:00 | 54.10457 | 9.04828 | 17387 ft | 224 kts | 154° |
| 2026-04-22 12:01 | 54.09007 | 9.05793 | 17387 ft | 224 kts | 154° |
| 2026-04-22 12:01 | 54.07559 | 9.06753 | 17387 ft | 224 kts | 154° |
| 2026-04-22 12:01 | 54.06108 | 9.07716 | 17386 ft | 223 kts | 154° |
| 2026-04-22 12:01 | 54.04661 | 9.08675 | 17386 ft | 223 kts | 154° |
| 2026-04-22 12:02 | 54.03215 | 9.09634 | 17375 ft | 223 kts | 154° |
| 2026-04-22 12:02 | 54.01770 | 9.10589 | 17374 ft | 223 kts | 154° |
| 2026-04-22 12:02 | 54.00328 | 9.11543 | 17374 ft | 223 kts | 154° |
| 2026-04-22 12:02 | 53.98881 | 9.12499 | 17376 ft | 223 kts | 154° |
| 2026-04-22 12:03 | 53.97436 | 9.13455 | 17376 ft | 223 kts | 154° |
| 2026-04-22 12:03 | 53.95987 | 9.14410 | 17376 ft | 223 kts | 154° |
| 2026-04-22 12:03 | 53.94541 | 9.15364 | 17377 ft | 223 kts | 154° |
| 2026-04-22 12:03 | 53.93092 | 9.16317 | 17377 ft | 223 kts | 154° |
| 2026-04-22 12:04 | 53.91648 | 9.17269 | 17378 ft | 223 kts | 154° |
| 2026-04-22 12:04 | 53.90200 | 9.18221 | 17378 ft | 223 kts | 154° |
| 2026-04-22 12:04 | 53.88751 | 9.19174 | 17378 ft | 223 kts | 154° |
| 2026-04-22 12:04 | 53.87305 | 9.20124 | 17378 ft | 222 kts | 154° |
| 2026-04-22 12:05 | 53.85864 | 9.21069 | 17377 ft | 222 kts | 154° |
| 2026-04-22 12:05 | 53.84424 | 9.22016 | 17378 ft | 222 kts | 154° |
| 2026-04-22 12:05 | 53.82984 | 9.22958 | 17377 ft | 222 kts | 154° |
| 2026-04-22 12:05 | 53.81543 | 9.23902 | 17366 ft | 222 kts | 154° |
| 2026-04-22 12:06 | 53.80101 | 9.24846 | 17369 ft | 222 kts | 154° |
| 2026-04-22 12:06 | 53.78660 | 9.25788 | 17374 ft | 222 kts | 154° |
| 2026-04-22 12:06 | 53.77220 | 9.26729 | 17373 ft | 222 kts | 154° |
| 2026-04-22 12:06 | 53.75780 | 9.27668 | 17373 ft | 222 kts | 154° |
| 2026-04-22 12:07 | 53.74342 | 9.28609 | 17370 ft | 222 kts | 154° |
| 2026-04-22 12:07 | 53.72899 | 9.29550 | 17371 ft | 222 kts | 154° |
| 2026-04-22 12:07 | 53.71458 | 9.30488 | 17369 ft | 222 kts | 155° |
| 2026-04-22 12:07 | 53.70019 | 9.31425 | 17370 ft | 222 kts | 154° |
| 2026-04-22 12:08 | 53.68577 | 9.32363 | 17370 ft | 222 kts | 154° |
| 2026-04-22 12:08 | 53.67137 | 9.33299 | 17373 ft | 222 kts | 154° |
| 2026-04-22 12:08 | 53.65699 | 9.34235 | 17372 ft | 222 kts | 154° |
| 2026-04-22 12:08 | 53.64261 | 9.35167 | 17372 ft | 221 kts | 154° |
| 2026-04-22 12:09 | 53.62822 | 9.36100 | 17378 ft | 221 kts | 154° |
| 2026-04-22 12:09 | 53.61385 | 9.37033 | 17375 ft | 221 kts | 154° |
| 2026-04-22 12:09 | 53.59949 | 9.37963 | 17378 ft | 221 kts | 154° |
| 2026-04-22 12:09 | 53.58533 | 9.38879 | 17374 ft | 221 kts | 155° |
| 2026-04-22 12:10 | 53.57101 | 9.39805 | 17372 ft | 220 kts | 155° |
| 2026-04-22 12:10 | 53.55669 | 9.40732 | 17374 ft | 220 kts | 155° |
| 2026-04-22 12:10 | 53.54238 | 9.41654 | 17379 ft | 221 kts | 155° |
| 2026-04-22 12:10 | 53.52804 | 9.42582 | 17374 ft | 221 kts | 155° |
| 2026-04-22 12:11 | 53.51372 | 9.43504 | 17381 ft | 220 kts | 155° |
| 2026-04-22 12:11 | 53.49901 | 9.44237 | 17378 ft | 224 kts | 171° |
| 2026-04-22 12:11 | 53.48346 | 9.44079 | 17382 ft | 226 kts | 193° |
| 2026-04-22 12:11 | 53.46846 | 9.43306 | 17379 ft | 225 kts | 197° |
| 2026-04-22 12:12 | 53.45347 | 9.42531 | 17384 ft | 226 kts | 197° |
| 2026-04-22 12:12 | 53.43844 | 9.41761 | 17387 ft | 226 kts | 197° |
| 2026-04-22 12:12 | 53.42344 | 9.40987 | 17376 ft | 225 kts | 197° |
| 2026-04-22 12:12 | 53.40844 | 9.40216 | 17371 ft | 226 kts | 197° |
| 2026-04-22 12:13 | 53.39342 | 9.39442 | 17378 ft | 226 kts | 197° |
| 2026-04-22 12:13 | 53.37837 | 9.38666 | 17377 ft | 226 kts | 197° |
| 2026-04-22 12:13 | 53.36335 | 9.37895 | 17370 ft | 226 kts | 196° |
| 2026-04-22 12:13 | 53.34831 | 9.37124 | 17375 ft | 226 kts | 196° |
| 2026-04-22 12:14 | 53.33327 | 9.36352 | 17371 ft | 226 kts | 196° |
| 2026-04-22 12:14 | 53.31824 | 9.35581 | 17360 ft | 226 kts | 196° |
| 2026-04-22 12:14 | 53.30321 | 9.34810 | 17369 ft | 226 kts | 196° |
| 2026-04-22 12:14 | 53.28818 | 9.34042 | 17369 ft | 226 kts | 196° |
| 2026-04-22 12:15 | 53.27316 | 9.33274 | 17370 ft | 226 kts | 196° |
| 2026-04-22 12:15 | 53.25814 | 9.32506 | 17369 ft | 226 kts | 196° |
| 2026-04-22 12:15 | 53.24311 | 9.31737 | 17368 ft | 226 kts | 196° |
| 2026-04-22 12:15 | 53.22806 | 9.30970 | 17362 ft | 226 kts | 196° |
| 2026-04-22 12:16 | 53.21302 | 9.30202 | 17367 ft | 226 kts | 196° |
| 2026-04-22 12:16 | 53.19799 | 9.29435 | 17371 ft | 226 kts | 196° |
| 2026-04-22 12:16 | 53.18317 | 9.28682 | 17377 ft | 226 kts | 196° |
| 2026-04-22 12:16 | 53.16794 | 9.27907 | 17378 ft | 226 kts | 196° |
| 2026-04-22 12:17 | 53.15293 | 9.27144 | 17380 ft | 223 kts | 196° |
| 2026-04-22 12:17 | 53.13824 | 9.26396 | 17379 ft | 224 kts | 196° |
| 2026-04-22 12:17 | 53.12327 | 9.25634 | 17380 ft | 225 kts | 196° |
| 2026-04-22 12:17 | 53.10828 | 9.24874 | 17374 ft | 225 kts | 196° |
| 2026-04-22 12:18 | 53.09329 | 9.24115 | 17382 ft | 226 kts | 196° |
| 2026-04-22 12:18 | 53.07825 | 9.23352 | 17385 ft | 226 kts | 196° |
| 2026-04-22 12:18 | 53.06324 | 9.22592 | 17377 ft | 226 kts | 196° |
| 2026-04-22 12:18 | 53.04817 | 9.21828 | 17386 ft | 226 kts | 196° |
| 2026-04-22 12:19 | 53.03314 | 9.21071 | 17387 ft | 226 kts | 196° |
| 2026-04-22 12:19 | 53.01809 | 9.20310 | 17383 ft | 226 kts | 196° |
| 2026-04-22 12:19 | 53.00306 | 9.19550 | 17387 ft | 226 kts | 196° |
| 2026-04-22 12:19 | 52.98805 | 9.18793 | 17381 ft | 226 kts | 196° |
| 2026-04-22 12:20 | 52.97301 | 9.18036 | 17384 ft | 226 kts | 196° |
| 2026-04-22 12:20 | 52.95797 | 9.17277 | 17386 ft | 226 kts | 196° |
| 2026-04-22 12:20 | 52.94345 | 9.16291 | 17377 ft | 226 kts | 210° |
| 2026-04-22 12:20 | 52.92967 | 9.15046 | 17377 ft | 226 kts | 208° |
| 2026-04-22 12:21 | 52.91575 | 9.13828 | 17385 ft | 226 kts | 208° |
| 2026-04-22 12:21 | 52.90185 | 9.12614 | 17387 ft | 225 kts | 208° |
| 2026-04-22 12:21 | 52.88797 | 9.11396 | 17385 ft | 226 kts | 207° |
| 2026-04-22 12:21 | 52.87409 | 9.10176 | 17386 ft | 226 kts | 208° |
| 2026-04-22 12:22 | 52.86016 | 9.08958 | 17385 ft | 226 kts | 207° |
| 2026-04-22 12:22 | 52.84622 | 9.07736 | 17385 ft | 226 kts | 208° |
| 2026-04-22 12:22 | 52.83246 | 9.06531 | 17384 ft | 226 kts | 208° |
| 2026-04-22 12:22 | 52.81853 | 9.05313 | 17383 ft | 226 kts | 208° |
| 2026-04-22 12:23 | 52.80460 | 9.04095 | 17385 ft | 226 kts | 208° |
| 2026-04-22 12:23 | 52.79068 | 9.02881 | 17385 ft | 226 kts | 207° |
| 2026-04-22 12:23 | 52.77677 | 9.01667 | 17384 ft | 226 kts | 207° |
| 2026-04-22 12:23 | 52.76283 | 9.00452 | 17384 ft | 227 kts | 207° |
| 2026-04-22 12:24 | 52.74885 | 8.99235 | 17378 ft | 227 kts | 207° |
| 2026-04-22 12:24 | 52.73491 | 8.98022 | 17377 ft | 227 kts | 207° |
| 2026-04-22 12:24 | 52.72098 | 8.96811 | 17374 ft | 226 kts | 207° |
| 2026-04-22 12:24 | 52.70704 | 8.95600 | 17378 ft | 226 kts | 207° |
| 2026-04-22 12:25 | 52.69311 | 8.94389 | 17379 ft | 226 kts | 207° |
| 2026-04-22 12:25 | 52.67919 | 8.93181 | 17380 ft | 226 kts | 207° |
| 2026-04-22 12:25 | 52.66525 | 8.91970 | 17385 ft | 227 kts | 207° |
| 2026-04-22 12:25 | 52.65131 | 8.90757 | 17383 ft | 226 kts | 207° |
| 2026-04-22 12:26 | 52.63740 | 8.89552 | 17382 ft | 226 kts | 207° |
| 2026-04-22 12:26 | 52.62346 | 8.88345 | 17382 ft | 226 kts | 207° |
| 2026-04-22 12:26 | 52.60950 | 8.87134 | 17380 ft | 226 kts | 207° |
| 2026-04-22 12:26 | 52.59557 | 8.85931 | 17381 ft | 227 kts | 207° |
| 2026-04-22 12:27 | 52.58161 | 8.84721 | 17382 ft | 227 kts | 207° |
| 2026-04-22 12:27 | 52.56766 | 8.83515 | 17382 ft | 227 kts | 207° |
| 2026-04-22 12:27 | 52.55368 | 8.82309 | 17382 ft | 227 kts | 207° |
| 2026-04-22 12:27 | 52.53971 | 8.81102 | 17381 ft | 227 kts | 207° |
| 2026-04-22 12:28 | 52.52574 | 8.79898 | 17382 ft | 227 kts | 207° |
| 2026-04-22 12:28 | 52.51181 | 8.78697 | 17382 ft | 227 kts | 207° |
| 2026-04-22 12:28 | 52.49782 | 8.77493 | 17381 ft | 227 kts | 207° |
| 2026-04-22 12:28 | 52.48387 | 8.76292 | 17382 ft | 226 kts | 207° |
| 2026-04-22 12:29 | 52.46992 | 8.75093 | 17382 ft | 227 kts | 207° |
| 2026-04-22 12:29 | 52.45594 | 8.73892 | 17381 ft | 227 kts | 207° |
| 2026-04-22 12:29 | 52.44198 | 8.72692 | 17382 ft | 227 kts | 206° |
| 2026-04-22 12:29 | 52.42801 | 8.71495 | 17383 ft | 227 kts | 206° |
| 2026-04-22 12:30 | 52.40009 | 8.69103 | 17225 ft | 233 kts | 206° |
| 2026-04-22 12:30 | 52.38558 | 8.67860 | 16961 ft | 237 kts | 206° |
| 2026-04-22 12:30 | 52.37095 | 8.66607 | 16711 ft | 238 kts | 206° |
| 2026-04-22 12:31 | 52.35628 | 8.65352 | 16462 ft | 238 kts | 206° |
| 2026-04-22 12:31 | 52.34161 | 8.64099 | 16206 ft | 238 kts | 206° |
| 2026-04-22 12:31 | 52.32698 | 8.62850 | 15952 ft | 237 kts | 206° |
| 2026-04-22 12:31 | 52.31243 | 8.61610 | 15702 ft | 236 kts | 206° |
| 2026-04-22 12:32 | 52.29788 | 8.60370 | 15450 ft | 235 kts | 206° |
| 2026-04-22 12:32 | 52.27221 | 8.57205 | 14950 ft | 232 kts | 236° |
| 2026-04-22 12:32 | 52.26498 | 8.54889 | 14705 ft | 228 kts | 251° |
| 2026-04-22 12:33 | 52.25920 | 8.52493 | 14465 ft | 226 kts | 251° |
| 2026-04-22 12:33 | 52.25334 | 8.50116 | 14233 ft | 225 kts | 251° |
| 2026-04-22 12:33 | 52.24752 | 8.47748 | 13966 ft | 224 kts | 251° |
| 2026-04-22 12:33 | 52.24172 | 8.45391 | 13696 ft | 223 kts | 251° |
| 2026-04-22 12:34 | 52.23594 | 8.43041 | 13428 ft | 223 kts | 250° |
| 2026-04-22 12:34 | 52.23017 | 8.40704 | 13155 ft | 222 kts | 250° |
| 2026-04-22 12:34 | 52.22442 | 8.38372 | 12892 ft | 222 kts | 250° |
| 2026-04-22 12:34 | 52.21867 | 8.36038 | 12630 ft | 222 kts | 250° |
| 2026-04-22 12:35 | 52.21291 | 8.33718 | 12370 ft | 220 kts | 249° |
| 2026-04-22 12:35 | 52.20718 | 8.31403 | 12116 ft | 220 kts | 249° |
| 2026-04-22 12:35 | 52.20149 | 8.29098 | 11863 ft | 219 kts | 249° |
| 2026-04-22 12:35 | 52.19659 | 8.26759 | 11612 ft | 217 kts | 254° |
| 2026-04-22 12:36 | 52.19196 | 8.24435 | 11356 ft | 215 kts | 253° |
| 2026-04-22 12:36 | 52.18730 | 8.22129 | 11108 ft | 214 kts | 253° |
| 2026-04-22 12:36 | 52.18275 | 8.19866 | 10863 ft | 213 kts | 253° |
| 2026-04-22 12:36 | 52.17811 | 8.17556 | 10653 ft | 210 kts | 253° |
| 2026-04-22 12:37 | 52.17360 | 8.15313 | 10484 ft | 207 kts | 253° |
| 2026-04-22 12:37 | 52.16914 | 8.13085 | 10311 ft | 206 kts | 253° |
| 2026-04-22 12:37 | 52.16473 | 8.10902 | 10126 ft | 204 kts | 253° |
| 2026-04-22 12:37 | 52.16033 | 8.08719 | 9940 ft | 203 kts | 253° |
| 2026-04-22 12:38 | 52.15593 | 8.06541 | 9746 ft | 201 kts | 253° |
| 2026-04-22 12:38 | 52.15158 | 8.04384 | 9565 ft | 200 kts | 252° |
| 2026-04-22 12:38 | 52.14721 | 8.02225 | 9380 ft | 201 kts | 253° |
| 2026-04-22 12:38 | 52.14285 | 8.00071 | 9193 ft | 200 kts | 252° |
| 2026-04-22 12:39 | 52.13850 | 7.97928 | 9009 ft | 198 kts | 252° |
| 2026-04-22 12:39 | 52.12988 | 7.93680 | 8642 ft | 197 kts | 252° |
| 2026-04-22 12:39 | 52.12558 | 7.91568 | 8466 ft | 196 kts | 252° |
| 2026-04-22 12:40 | 52.12130 | 7.89459 | 8284 ft | 196 kts | 252° |
| 2026-04-22 12:40 | 52.11702 | 7.87359 | 8102 ft | 195 kts | 252° |
| 2026-04-22 12:40 | 52.11274 | 7.85265 | 7926 ft | 195 kts | 252° |
| 2026-04-22 12:40 | 52.10847 | 7.83170 | 7752 ft | 195 kts | 252° |
| 2026-04-22 12:41 | 52.10419 | 7.81082 | 7573 ft | 194 kts | 251° |
| 2026-04-22 12:41 | 52.10131 | 7.79676 | 7460 ft | 194 kts | 252° |
| 2026-04-22 12:41 | 52.09711 | 7.77621 | 7288 ft | 194 kts | 252° |
| 2026-04-22 12:41 | 52.09286 | 7.75546 | 7116 ft | 193 kts | 251° |
| 2026-04-22 12:42 | 52.08861 | 7.73470 | 6947 ft | 193 kts | 251° |
| 2026-04-22 12:42 | 52.08432 | 7.71401 | 6777 ft | 193 kts | 251° |
| 2026-04-22 12:42 | 52.08008 | 7.69333 | 6592 ft | 192 kts | 252° |
| 2026-04-22 12:42 | 52.07587 | 7.67276 | 6412 ft | 192 kts | 251° |
| 2026-04-22 12:43 | 52.07163 | 7.65223 | 6227 ft | 191 kts | 251° |
| 2026-04-22 12:43 | 52.06739 | 7.63178 | 6047 ft | 191 kts | 251° |
| 2026-04-22 12:43 | 52.06317 | 7.61127 | 5870 ft | 191 kts | 251° |
| 2026-04-22 12:43 | 52.05894 | 7.59082 | 5689 ft | 190 kts | 251° |
| 2026-04-22 12:44 | 52.05475 | 7.57050 | 5512 ft | 190 kts | 251° |
| 2026-04-22 12:44 | 52.05055 | 7.55025 | 5333 ft | 188 kts | 251° |
| 2026-04-22 12:44 | 52.04637 | 7.53012 | 5155 ft | 187 kts | 251° |
| 2026-04-22 12:44 | 52.04219 | 7.51010 | 4984 ft | 189 kts | 250° |
| 2026-04-22 12:45 | 52.03799 | 7.48983 | 4803 ft | 188 kts | 251° |
| 2026-04-22 12:45 | 52.03394 | 7.47017 | 4618 ft | 179 kts | 250° |
| 2026-04-22 12:45 | 52.03004 | 7.45121 | 4432 ft | 176 kts | 251° |
| 2026-04-22 12:45 | 52.02824 | 7.43193 | 4234 ft | 173 kts | 282° |
| 2026-04-22 12:46 | 52.03437 | 7.41610 | 4047 ft | 166 kts | 328° |
| 2026-04-22 12:46 | 52.04421 | 7.40743 | 3884 ft | 162 kts | 337° |
| 2026-04-22 12:46 | 52.05421 | 7.39904 | 3707 ft | 161 kts | 337° |
| 2026-04-22 12:46 | 52.06443 | 7.39182 | 3525 ft | 157 kts | 355° |
| 2026-04-22 12:47 | 52.07438 | 7.39631 | 3352 ft | 150 kts | 43° |
| 2026-04-22 12:47 | 52.07858 | 7.41124 | 3175 ft | 148 kts | 85° |
| 2026-04-22 12:47 | 52.08067 | 7.42729 | 3015 ft | 144 kts | 72° |
| 2026-04-22 12:47 | 52.08358 | 7.44265 | 3015 ft | 142 kts | 72° |
| 2026-04-22 12:48 | 52.08667 | 7.45816 | 2924 ft | 150 kts | 71° |
| 2026-04-22 12:48 | 52.09024 | 7.47478 | 2711 ft | 159 kts | 70° |
| 2026-04-22 12:48 | 52.09376 | 7.49155 | 2490 ft | 150 kts | 70° |
| 2026-04-22 12:48 | 52.09693 | 7.50672 | 2297 ft | 139 kts | 70° |
| 2026-04-22 12:49 | 52.10008 | 7.52136 | 2096 ft | 134 kts | 70° |
| 2026-04-22 12:49 | 52.10307 | 7.53560 | 1915 ft | 134 kts | 70° |
| 2026-04-22 12:49 | 52.10608 | 7.54976 | 1725 ft | 129 kts | 70° |
| 2026-04-22 12:49 | 52.10887 | 7.56301 | 1558 ft | 120 kts | 70° |
| 2026-04-22 12:50 | 52.11150 | 7.57555 | 1393 ft | 113 kts | 70° |
| 2026-04-22 12:50 | 52.11397 | 7.58707 | 1255 ft | 99 kts | 69° |
| 2026-04-22 12:50 | 52.11611 | 7.59722 | 1117 ft | 95 kts | 69° |
| 2026-04-22 12:50 | 52.11828 | 7.60743 | 992 ft | 95 kts | 69° |
| 2026-04-22 12:51 | 52.12032 | 7.61716 | 867 ft | 86 kts | 67° |
| 2026-04-22 12:51 | 52.12213 | 7.62574 | 755 ft | 75 kts | 68° |
| 2026-04-22 12:51 | 52.12382 | 7.63370 | 664 ft | 78 kts | 68° |
| 2026-04-22 12:51 | 52.12553 | 7.64221 | 625 ft | 79 kts | 66° |
| 2026-04-22 12:52 | 52.12738 | 7.65077 | 512 ft | 83 kts | 67° |
| 2026-04-22 12:52 | 52.12934 | 7.65972 | 352 ft | 84 kts | 69° |
| 2026-04-22 12:52 | 52.13114 | 7.66818 | 196 ft | 77 kts | 71° |
| 2026-04-22 12:52 | 52.13263 | 7.67530 | 160 ft | 50 kts | 71° |
| 2026-04-22 12:53 | 52.13349 | 7.67942 | 161 ft | 29 kts | 70° |
| 2026-04-22 12:53 | 52.13396 | 7.68174 | 162 ft | 14 kts | 85° |
| 2026-04-22 12:53 | 52.13331 | 7.68278 | 162 ft | 16 kts | 160° |
| 2026-04-22 12:53 | 52.13218 | 7.68340 | 162 ft | 17 kts | 161° |
| 2026-04-22 12:54 | 52.13138 | 7.68385 | 162 ft | 9 kts | 161° |
| 2026-04-22 12:54 | 52.13105 | 7.68342 | 162 ft | 7 kts | 270° |
| 2026-04-22 12:54 | 52.13105 | 7.68318 | 162 ft | 0 kts | 270° |